sensor_id;sensor_type;location;lat;lon;timestamp;P1;P2;P0
74880;PMS5003;63427;49.654;6.596;2023-07-09T00:00:06;22;22;
74880;PMS5003;63427;49.654;6.596;2023-07-09T00:02:29;23;22;
74880;PMS5003;63427;49.654;6.596;2023-07-09T00:04:54;19;19;
74880;PMS5003;63427;49.654;6.596;2023-07-09T00:07:21;21;21;
74880;PMS5003;63427;49.654;6.596;2023-07-09T00:09:45;18;18;
74880;PMS5003;63427;49.654;6.596;2023-07-09T00:12:12;16;16;
74880;PMS5003;63427;49.654;6.596;2023-07-09T00:14:36;22;21;
74880;PMS5003;63427;49.654;6.596;2023-07-09T00:17:02;16;16;
74880;PMS5003;63427;49.654;6.596;2023-07-09T00:19:27;18;18;
74880;PMS5003;63427;49.654;6.596;2023-07-09T00:21:53;19;18;
74880;PMS5003;63427;49.654;6.596;2023-07-09T00:24:18;18;18;
74880;PMS5003;63427;49.654;6.596;2023-07-09T00:26:44;19;17;
74880;PMS5003;63427;49.654;6.596;2023-07-09T00:29:10;17;17;
74880;PMS5003;63427;49.654;6.596;2023-07-09T00:31:34;15;15;
74880;PMS5003;63427;49.654;6.596;2023-07-09T00:34:00;18;18;
74880;PMS5003;63427;49.654;6.596;2023-07-09T00:36:26;22;22;
74880;PMS5003;63427;49.654;6.596;2023-07-09T00:38:51;20;20;
74880;PMS5003;63427;49.654;6.596;2023-07-09T00:41:18;17;17;
74880;PMS5003;63427;49.654;6.596;2023-07-09T00:43:42;16;16;
74880;PMS5003;63427;49.654;6.596;2023-07-09T00:46:10;18;18;
74880;PMS5003;63427;49.654;6.596;2023-07-09T00:48:32;19;19;
74880;PMS5003;63427;49.654;6.596;2023-07-09T00:50:58;13;13;
74880;PMS5003;63427;49.654;6.596;2023-07-09T00:53:25;16;16;
74880;PMS5003;63427;49.654;6.596;2023-07-09T00:55:51;19;19;
74880;PMS5003;63427;49.654;6.596;2023-07-09T00:58:15;17;17;
74880;PMS5003;63427;49.654;6.596;2023-07-09T01:00:42;18;18;
74880;PMS5003;63427;49.654;6.596;2023-07-09T01:03:06;18;17;
74880;PMS5003;63427;49.654;6.596;2023-07-09T01:05:31;19;18;
74880;PMS5003;63427;49.654;6.596;2023-07-09T01:07:56;17;16;
74880;PMS5003;63427;49.654;6.596;2023-07-09T01:10:22;16;16;
74880;PMS5003;63427;49.654;6.596;2023-07-09T01:12:47;14;14;
74880;PMS5003;63427;49.654;6.596;2023-07-09T01:15:12;15;15;
74880;PMS5003;63427;49.654;6.596;2023-07-09T01:17:37;17;16;
74880;PMS5003;63427;49.654;6.596;2023-07-09T01:20:03;17;17;
74880;PMS5003;63427;49.654;6.596;2023-07-09T01:22:29;20;20;
74880;PMS5003;63427;49.654;6.596;2023-07-09T01:24:55;17;16;
74880;PMS5003;63427;49.654;6.596;2023-07-09T01:27:20;17;16;
74880;PMS5003;63427;49.654;6.596;2023-07-09T01:29:44;16;16;
74880;PMS5003;63427;49.654;6.596;2023-07-09T01:32:09;18;18;
74880;PMS5003;63427;49.654;6.596;2023-07-09T01:34:35;18;17;
74880;PMS5003;63427;49.654;6.596;2023-07-09T01:37:00;16;16;
74880;PMS5003;63427;49.654;6.596;2023-07-09T01:39:26;18;18;
74880;PMS5003;63427;49.654;6.596;2023-07-09T01:41:51;14;14;
74880;PMS5003;63427;49.654;6.596;2023-07-09T01:44:17;14;14;
74880;PMS5003;63427;49.654;6.596;2023-07-09T01:46:42;17;17;
74880;PMS5003;63427;49.654;6.596;2023-07-09T01:49:07;14;14;
74880;PMS5003;63427;49.654;6.596;2023-07-09T01:51:32;16;15;
74880;PMS5003;63427;49.654;6.596;2023-07-09T01:53:57;15;15;
74880;PMS5003;63427;49.654;6.596;2023-07-09T01:56:23;16;16;
74880;PMS5003;63427;49.654;6.596;2023-07-09T01:58:49;16;15;
74880;PMS5003;63427;49.654;6.596;2023-07-09T02:01:14;14;14;
74880;PMS5003;63427;49.654;6.596;2023-07-09T02:03:39;18;18;
74880;PMS5003;63427;49.654;6.596;2023-07-09T02:06:05;19;19;
74880;PMS5003;63427;49.654;6.596;2023-07-09T02:08:30;16;16;
74880;PMS5003;63427;49.654;6.596;2023-07-09T02:10:55;14;14;
74880;PMS5003;63427;49.654;6.596;2023-07-09T02:13:20;18;18;
74880;PMS5003;63427;49.654;6.596;2023-07-09T02:15:46;23;23;
74880;PMS5003;63427;49.654;6.596;2023-07-09T02:18:12;18;18;
74880;PMS5003;63427;49.654;6.596;2023-07-09T02:20:37;18;17;
74880;PMS5003;63427;49.654;6.596;2023-07-09T02:23:02;16;16;
74880;PMS5003;63427;49.654;6.596;2023-07-09T02:25:27;17;16;
74880;PMS5003;63427;49.654;6.596;2023-07-09T02:27:53;16;16;
74880;PMS5003;63427;49.654;6.596;2023-07-09T02:30:18;16;16;
74880;PMS5003;63427;49.654;6.596;2023-07-09T02:32:43;18;18;
74880;PMS5003;63427;49.654;6.596;2023-07-09T02:35:09;19;19;
74880;PMS5003;63427;49.654;6.596;2023-07-09T02:37:34;14;14;
74880;PMS5003;63427;49.654;6.596;2023-07-09T02:39:59;18;17;
74880;PMS5003;63427;49.654;6.596;2023-07-09T02:42:24;16;15;
74880;PMS5003;63427;49.654;6.596;2023-07-09T02:44:50;20;20;
74880;PMS5003;63427;49.654;6.596;2023-07-09T02:47:16;16;16;
74880;PMS5003;63427;49.654;6.596;2023-07-09T02:49:41;18;18;
74880;PMS5003;63427;49.654;6.596;2023-07-09T02:52:17;17;16;
74880;PMS5003;63427;49.654;6.596;2023-07-09T02:54:32;20;19;
74880;PMS5003;63427;49.654;6.596;2023-07-09T02:56:58;22;22;
74880;PMS5003;63427;49.654;6.596;2023-07-09T02:59:23;17;17;
74880;PMS5003;63427;49.654;6.596;2023-07-09T03:01:48;18;18;
74880;PMS5003;63427;49.654;6.596;2023-07-09T03:04:13;17;17;
74880;PMS5003;63427;49.654;6.596;2023-07-09T03:06:39;15;15;
74880;PMS5003;63427;49.654;6.596;2023-07-09T03:09:05;16;15;
74880;PMS5003;63427;49.654;6.596;2023-07-09T03:11:31;16;16;
74880;PMS5003;63427;49.654;6.596;2023-07-09T03:13:56;13;13;
74880;PMS5003;63427;49.654;6.596;2023-07-09T03:16:22;19;18;
74880;PMS5003;63427;49.654;6.596;2023-07-09T03:18:47;18;17;
74880;PMS5003;63427;49.654;6.596;2023-07-09T03:21:12;18;18;
74880;PMS5003;63427;49.654;6.596;2023-07-09T03:23:46;15;15;
74880;PMS5003;63427;49.654;6.596;2023-07-09T03:26:03;16;16;
74880;PMS5003;63427;49.654;6.596;2023-07-09T03:28:29;17;17;
74880;PMS5003;63427;49.654;6.596;2023-07-09T03:30:54;17;17;
74880;PMS5003;63427;49.654;6.596;2023-07-09T03:33:19;19;18;
74880;PMS5003;63427;49.654;6.596;2023-07-09T03:35:45;20;20;
74880;PMS5003;63427;49.654;6.596;2023-07-09T03:38:10;17;16;
74880;PMS5003;63427;49.654;6.596;2023-07-09T03:40:36;19;18;
74880;PMS5003;63427;49.654;6.596;2023-07-09T03:43:02;18;18;
74880;PMS5003;63427;49.654;6.596;2023-07-09T03:45:28;17;17;
74880;PMS5003;63427;49.654;6.596;2023-07-09T03:47:53;18;18;
74880;PMS5003;63427;49.654;6.596;2023-07-09T03:50:18;18;17;
74880;PMS5003;63427;49.654;6.596;2023-07-09T03:52:44;17;17;
74880;PMS5003;63427;49.654;6.596;2023-07-09T03:55:10;19;19;
74880;PMS5003;63427;49.654;6.596;2023-07-09T03:57:35;23;22;
74880;PMS5003;63427;49.654;6.596;2023-07-09T04:00:01;19;19;
74880;PMS5003;63427;49.654;6.596;2023-07-09T04:02:27;19;19;
74880;PMS5003;63427;49.654;6.596;2023-07-09T04:04:52;18;18;
74880;PMS5003;63427;49.654;6.596;2023-07-09T04:07:17;24;23;
74880;PMS5003;63427;49.654;6.596;2023-07-09T04:09:42;19;19;
74880;PMS5003;63427;49.654;6.596;2023-07-09T04:12:08;19;19;
74880;PMS5003;63427;49.654;6.596;2023-07-09T04:14:33;19;18;
74880;PMS5003;63427;49.654;6.596;2023-07-09T04:16:58;17;17;
74880;PMS5003;63427;49.654;6.596;2023-07-09T04:19:24;20;20;
74880;PMS5003;63427;49.654;6.596;2023-07-09T04:21:49;21;20;
74880;PMS5003;63427;49.654;6.596;2023-07-09T04:24:14;16;16;
74880;PMS5003;63427;49.654;6.596;2023-07-09T04:26:39;20;20;
74880;PMS5003;63427;49.654;6.596;2023-07-09T04:29:05;20;19;
74880;PMS5003;63427;49.654;6.596;2023-07-09T04:31:30;16;16;
74880;PMS5003;63427;49.654;6.596;2023-07-09T04:33:55;19;19;
74880;PMS5003;63427;49.654;6.596;2023-07-09T04:36:21;22;21;
74880;PMS5003;63427;49.654;6.596;2023-07-09T04:38:47;24;23;
74880;PMS5003;63427;49.654;6.596;2023-07-09T04:41:12;21;20;
74880;PMS5003;63427;49.654;6.596;2023-07-09T04:43:38;17;17;
74880;PMS5003;63427;49.654;6.596;2023-07-09T04:46:03;18;18;
74880;PMS5003;63427;49.654;6.596;2023-07-09T04:48:28;16;16;
74880;PMS5003;63427;49.654;6.596;2023-07-09T04:50:54;17;17;
74880;PMS5003;63427;49.654;6.596;2023-07-09T04:53:19;20;19;
74880;PMS5003;63427;49.654;6.596;2023-07-09T04:55:44;19;19;
74880;PMS5003;63427;49.654;6.596;2023-07-09T04:58:09;17;17;
74880;PMS5003;63427;49.654;6.596;2023-07-09T05:00:35;18;16;
74880;PMS5003;63427;49.654;6.596;2023-07-09T05:03:00;20;19;
74880;PMS5003;63427;49.654;6.596;2023-07-09T05:05:25;17;17;
74880;PMS5003;63427;49.654;6.596;2023-07-09T05:07:51;24;22;
74880;PMS5003;63427;49.654;6.596;2023-07-09T05:10:16;18;18;
74880;PMS5003;63427;49.654;6.596;2023-07-09T05:12:47;19;18;
74880;PMS5003;63427;49.654;6.596;2023-07-09T05:15:08;20;20;
74880;PMS5003;63427;49.654;6.596;2023-07-09T05:17:33;20;20;
74880;PMS5003;63427;49.654;6.596;2023-07-09T05:19:58;17;17;
74880;PMS5003;63427;49.654;6.596;2023-07-09T05:22:24;17;17;
74880;PMS5003;63427;49.654;6.596;2023-07-09T05:24:50;20;20;
74880;PMS5003;63427;49.654;6.596;2023-07-09T05:27:15;20;20;
74880;PMS5003;63427;49.654;6.596;2023-07-09T05:29:41;22;21;
74880;PMS5003;63427;49.654;6.596;2023-07-09T05:32:06;17;17;
74880;PMS5003;63427;49.654;6.596;2023-07-09T05:34:32;19;19;
74880;PMS5003;63427;49.654;6.596;2023-07-09T05:36:57;19;18;
74880;PMS5003;63427;49.654;6.596;2023-07-09T05:39:23;18;18;
74880;PMS5003;63427;49.654;6.596;2023-07-09T05:41:48;17;17;
74880;PMS5003;63427;49.654;6.596;2023-07-09T05:44:13;14;14;
74880;PMS5003;63427;49.654;6.596;2023-07-09T05:46:38;18;18;
74880;PMS5003;63427;49.654;6.596;2023-07-09T05:49:03;17;16;
74880;PMS5003;63427;49.654;6.596;2023-07-09T05:51:29;19;19;
74880;PMS5003;63427;49.654;6.596;2023-07-09T05:53:54;17;17;
74880;PMS5003;63427;49.654;6.596;2023-07-09T05:56:19;21;21;
74880;PMS5003;63427;49.654;6.596;2023-07-09T05:58:45;21;21;
74880;PMS5003;63427;49.654;6.596;2023-07-09T06:01:10;22;21;
74880;PMS5003;63427;49.654;6.596;2023-07-09T06:03:36;19;19;
74880;PMS5003;63427;49.654;6.596;2023-07-09T06:06:01;19;18;
74880;PMS5003;63427;49.654;6.596;2023-07-09T06:08:27;26;25;
74880;PMS5003;63427;49.654;6.596;2023-07-09T06:10:53;20;20;
74880;PMS5003;63427;49.654;6.596;2023-07-09T06:13:17;22;22;
74880;PMS5003;63427;49.654;6.596;2023-07-09T06:15:43;17;17;
74880;PMS5003;63427;49.654;6.596;2023-07-09T06:18:08;20;20;
74880;PMS5003;63427;49.654;6.596;2023-07-09T06:20:34;18;18;
74880;PMS5003;63427;49.654;6.596;2023-07-09T06:22:59;21;21;
74880;PMS5003;63427;49.654;6.596;2023-07-09T06:25:24;19;19;
74880;PMS5003;63427;49.654;6.596;2023-07-09T06:27:49;20;19;
74880;PMS5003;63427;49.654;6.596;2023-07-09T06:30:15;21;21;
74880;PMS5003;63427;49.654;6.596;2023-07-09T06:32:40;16;16;
74880;PMS5003;63427;49.654;6.596;2023-07-09T06:35:06;22;21;
74880;PMS5003;63427;49.654;6.596;2023-07-09T06:37:31;25;24;
74880;PMS5003;63427;49.654;6.596;2023-07-09T06:39:57;22;22;
74880;PMS5003;63427;49.654;6.596;2023-07-09T06:42:21;22;21;
74880;PMS5003;63427;49.654;6.596;2023-07-09T06:44:47;20;19;
74880;PMS5003;63427;49.654;6.596;2023-07-09T06:47:12;24;24;
74880;PMS5003;63427;49.654;6.596;2023-07-09T06:49:38;19;19;
74880;PMS5003;63427;49.654;6.596;2023-07-09T06:52:03;17;16;
74880;PMS5003;63427;49.654;6.596;2023-07-09T06:54:28;19;19;
74880;PMS5003;63427;49.654;6.596;2023-07-09T06:56:53;23;23;
74880;PMS5003;63427;49.654;6.596;2023-07-09T06:59:18;20;20;
74880;PMS5003;63427;49.654;6.596;2023-07-09T07:01:43;20;20;
74880;PMS5003;63427;49.654;6.596;2023-07-09T07:04:09;21;21;
74880;PMS5003;63427;49.654;6.596;2023-07-09T07:06:34;21;20;
74880;PMS5003;63427;49.654;6.596;2023-07-09T07:09:00;21;20;
74880;PMS5003;63427;49.654;6.596;2023-07-09T07:11:26;22;20;
74880;PMS5003;63427;49.654;6.596;2023-07-09T07:13:51;20;20;
74880;PMS5003;63427;49.654;6.596;2023-07-09T07:16:17;19;19;
74880;PMS5003;63427;49.654;6.596;2023-07-09T07:18:42;20;20;
74880;PMS5003;63427;49.654;6.596;2023-07-09T07:21:08;20;18;
74880;PMS5003;63427;49.654;6.596;2023-07-09T07:23:34;18;18;
74880;PMS5003;63427;49.654;6.596;2023-07-09T07:25:59;17;17;
74880;PMS5003;63427;49.654;6.596;2023-07-09T07:28:24;19;19;
74880;PMS5003;63427;49.654;6.596;2023-07-09T07:33:15;21;21;
74880;PMS5003;63427;49.654;6.596;2023-07-09T07:35:41;20;19;
74880;PMS5003;63427;49.654;6.596;2023-07-09T07:38:07;20;20;
74880;PMS5003;63427;49.654;6.596;2023-07-09T07:40:32;17;17;
74880;PMS5003;63427;49.654;6.596;2023-07-09T07:42:58;17;17;
74880;PMS5003;63427;49.654;6.596;2023-07-09T07:45:24;18;18;
74880;PMS5003;63427;49.654;6.596;2023-07-09T07:47:49;17;17;
74880;PMS5003;63427;49.654;6.596;2023-07-09T07:50:15;16;16;
74880;PMS5003;63427;49.654;6.596;2023-07-09T07:52:40;20;20;
74880;PMS5003;63427;49.654;6.596;2023-07-09T07:55:06;19;18;
74880;PMS5003;63427;49.654;6.596;2023-07-09T07:57:31;16;16;
74880;PMS5003;63427;49.654;6.596;2023-07-09T07:59:57;19;19;
74880;PMS5003;63427;49.654;6.596;2023-07-09T08:02:23;19;19;
74880;PMS5003;63427;49.654;6.596;2023-07-09T08:04:49;18;18;
74880;PMS5003;63427;49.654;6.596;2023-07-09T08:07:14;18;17;
74880;PMS5003;63427;49.654;6.596;2023-07-09T08:09:40;18;18;
74880;PMS5003;63427;49.654;6.596;2023-07-09T08:12:06;17;17;
74880;PMS5003;63427;49.654;6.596;2023-07-09T08:14:31;17;17;
74880;PMS5003;63427;49.654;6.596;2023-07-09T08:16:57;16;16;
74880;PMS5003;63427;49.654;6.596;2023-07-09T08:19:22;16;16;
74880;PMS5003;63427;49.654;6.596;2023-07-09T08:21:48;16;16;
74880;PMS5003;63427;49.654;6.596;2023-07-09T08:24:13;15;15;
74880;PMS5003;63427;49.654;6.596;2023-07-09T08:26:38;13;13;
74880;PMS5003;63427;49.654;6.596;2023-07-09T08:29:04;14;14;
74880;PMS5003;63427;49.654;6.596;2023-07-09T08:31:29;15;15;
74880;PMS5003;63427;49.654;6.596;2023-07-09T08:33:54;15;15;
74880;PMS5003;63427;49.654;6.596;2023-07-09T08:36:20;16;16;
74880;PMS5003;63427;49.654;6.596;2023-07-09T08:38:45;16;16;
74880;PMS5003;63427;49.654;6.596;2023-07-09T08:41:18;16;15;
74880;PMS5003;63427;49.654;6.596;2023-07-09T08:43:39;13;13;
74880;PMS5003;63427;49.654;6.596;2023-07-09T08:46:03;16;14;
74880;PMS5003;63427;49.654;6.596;2023-07-09T08:48:29;15;15;
74880;PMS5003;63427;49.654;6.596;2023-07-09T08:50:54;12;12;
74880;PMS5003;63427;49.654;6.596;2023-07-09T08:53:19;14;13;
74880;PMS5003;63427;49.654;6.596;2023-07-09T08:55:44;14;13;
74880;PMS5003;63427;49.654;6.596;2023-07-09T08:58:10;11;11;
74880;PMS5003;63427;49.654;6.596;2023-07-09T09:00:37;11;11;
74880;PMS5003;63427;49.654;6.596;2023-07-09T09:03:02;11;11;
74880;PMS5003;63427;49.654;6.596;2023-07-09T09:05:26;12;12;
74880;PMS5003;63427;49.654;6.596;2023-07-09T09:07:53;12;11;
74880;PMS5003;63427;49.654;6.596;2023-07-09T09:10:17;12;11;
74880;PMS5003;63427;49.654;6.596;2023-07-09T09:12:44;11;11;
74880;PMS5003;63427;49.654;6.596;2023-07-09T09:15:10;10;10;
74880;PMS5003;63427;49.654;6.596;2023-07-09T09:46:37;9;9;
74880;PMS5003;63427;49.654;6.596;2023-07-09T09:49:02;10;10;
74880;PMS5003;63427;49.654;6.596;2023-07-09T09:51:28;8;8;
74880;PMS5003;63427;49.654;6.596;2023-07-09T09:53:55;9;9;
74880;PMS5003;63427;49.654;6.596;2023-07-09T09:56:19;9;9;
74880;PMS5003;63427;49.654;6.596;2023-07-09T09:58:44;8;8;
74880;PMS5003;63427;49.654;6.596;2023-07-09T10:01:11;8;8;
74880;PMS5003;63427;49.654;6.596;2023-07-09T10:03:35;8;8;
74880;PMS5003;63427;49.654;6.596;2023-07-09T10:06:02;9;9;
74880;PMS5003;63427;49.654;6.596;2023-07-09T10:08:27;11;11;
74880;PMS5003;63427;49.654;6.596;2023-07-09T10:10:51;10;10;
74880;PMS5003;63427;49.654;6.596;2023-07-09T10:13:18;10;10;
74880;PMS5003;63427;49.654;6.596;2023-07-09T10:15:42;8;8;
74880;PMS5003;63427;49.654;6.596;2023-07-09T10:18:09;11;11;
74880;PMS5003;63427;49.654;6.596;2023-07-09T10:20:35;8;8;
74880;PMS5003;63427;49.654;6.596;2023-07-09T10:23:00;7;7;
74880;PMS5003;63427;49.654;6.596;2023-07-09T10:25:28;10;9;
74880;PMS5003;63427;49.654;6.596;2023-07-09T10:27:53;6;6;
74880;PMS5003;63427;49.654;6.596;2023-07-09T10:30:17;8;8;
74880;PMS5003;63427;49.654;6.596;2023-07-09T10:32:42;7;7;
74880;PMS5003;63427;49.654;6.596;2023-07-09T10:35:05;6;6;
74880;PMS5003;63427;49.654;6.596;2023-07-09T10:37:36;9;9;
74880;PMS5003;63427;49.654;6.596;2023-07-09T10:39:55;8;8;
74880;PMS5003;63427;49.654;6.596;2023-07-09T10:42:22;7;7;
74880;PMS5003;63427;49.654;6.596;2023-07-09T10:44:46;7;7;
74880;PMS5003;63427;49.654;6.596;2023-07-09T10:47:12;8;8;
74880;PMS5003;63427;49.654;6.596;2023-07-09T10:49:38;7;7;
74880;PMS5003;63427;49.654;6.596;2023-07-09T10:52:03;9;9;
74880;PMS5003;63427;49.654;6.596;2023-07-09T10:54:28;9;9;
74880;PMS5003;63427;49.654;6.596;2023-07-09T10:56:54;9;9;
74880;PMS5003;63427;49.654;6.596;2023-07-09T10:59:20;9;9;
74880;PMS5003;63427;49.654;6.596;2023-07-09T11:01:43;9;8;
74880;PMS5003;63427;49.654;6.596;2023-07-09T11:04:10;8;8;
74880;PMS5003;63427;49.654;6.596;2023-07-09T11:06:34;8;8;
74880;PMS5003;63427;49.654;6.596;2023-07-09T11:08:58;8;8;
74880;PMS5003;63427;49.654;6.596;2023-07-09T11:11:25;10;9;
74880;PMS5003;63427;49.654;6.596;2023-07-09T11:13:50;10;9;
74880;PMS5003;63427;49.654;6.596;2023-07-09T11:16:14;9;9;
74880;PMS5003;63427;49.654;6.596;2023-07-09T11:18:39;8;8;
74880;PMS5003;63427;49.654;6.596;2023-07-09T11:28:31;9;8;
74880;PMS5003;63427;49.654;6.596;2023-07-09T11:30:47;7;7;
74880;PMS5003;63427;49.654;6.596;2023-07-09T11:33:15;7;7;
74880;PMS5003;63427;49.654;6.596;2023-07-09T11:40:27;7;7;
74880;PMS5003;63427;49.654;6.596;2023-07-09T11:42:52;7;7;
74880;PMS5003;63427;49.654;6.596;2023-07-09T11:45:19;10;9;
74880;PMS5003;63427;49.654;6.596;2023-07-09T11:47:44;10;10;
74880;PMS5003;63427;49.654;6.596;2023-07-09T11:50:13;10;9;
74880;PMS5003;63427;49.654;6.596;2023-07-09T11:52:34;7;7;
74880;PMS5003;63427;49.654;6.596;2023-07-09T11:55:01;8;8;
74880;PMS5003;63427;49.654;6.596;2023-07-09T11:57:24;7;7;
74880;PMS5003;63427;49.654;6.596;2023-07-09T11:59:49;8;8;
74880;PMS5003;63427;49.654;6.596;2023-07-09T12:02:16;7;7;
74880;PMS5003;63427;49.654;6.596;2023-07-09T12:04:40;8;8;
74880;PMS5003;63427;49.654;6.596;2023-07-09T12:07:05;8;8;
74880;PMS5003;63427;49.654;6.596;2023-07-09T12:09:31;8;8;
74880;PMS5003;63427;49.654;6.596;2023-07-09T12:11:55;8;8;
74880;PMS5003;63427;49.654;6.596;2023-07-09T12:14:21;8;8;
74880;PMS5003;63427;49.654;6.596;2023-07-09T13:41:38;11;11;
74880;PMS5003;63427;49.654;6.596;2023-07-09T13:43:58;10;10;
74880;PMS5003;63427;49.654;6.596;2023-07-09T13:46:24;12;12;
74880;PMS5003;63427;49.654;6.596;2023-07-09T13:48:50;13;12;
74880;PMS5003;63427;49.654;6.596;2023-07-09T13:51:16;13;12;
74880;PMS5003;63427;49.654;6.596;2023-07-09T13:53:41;12;12;
74880;PMS5003;63427;49.654;6.596;2023-07-09T13:56:06;10;10;
74880;PMS5003;63427;49.654;6.596;2023-07-09T13:58:32;10;10;
74880;PMS5003;63427;49.654;6.596;2023-07-09T14:00:58;13;12;
74880;PMS5003;63427;49.654;6.596;2023-07-09T14:03:24;10;9;
74880;PMS5003;63427;49.654;6.596;2023-07-09T14:05:50;11;11;
74880;PMS5003;63427;49.654;6.596;2023-07-09T14:08:14;10;10;
74880;PMS5003;63427;49.654;6.596;2023-07-09T14:10:46;11;11;
74880;PMS5003;63427;49.654;6.596;2023-07-09T14:13:07;9;9;
74880;PMS5003;63427;49.654;6.596;2023-07-09T14:15:31;12;12;
74880;PMS5003;63427;49.654;6.596;2023-07-09T14:17:57;13;13;
74880;PMS5003;63427;49.654;6.596;2023-07-09T14:20:23;14;14;
74880;PMS5003;63427;49.654;6.596;2023-07-09T15:16:13;12;12;
74880;PMS5003;63427;49.654;6.596;2023-07-09T15:18:39;9;9;
74880;PMS5003;63427;49.654;6.596;2023-07-09T15:21:04;11;11;
74880;PMS5003;63427;49.654;6.596;2023-07-09T15:23:30;9;9;
74880;PMS5003;63427;49.654;6.596;2023-07-09T15:25:56;11;10;
74880;PMS5003;63427;49.654;6.596;2023-07-09T15:28:22;10;10;
74880;PMS5003;63427;49.654;6.596;2023-07-09T15:30:47;13;11;
74880;PMS5003;63427;49.654;6.596;2023-07-09T15:33:14;9;9;
74880;PMS5003;63427;49.654;6.596;2023-07-09T15:35:38;9;9;
74880;PMS5003;63427;49.654;6.596;2023-07-09T15:38:08;10;9;
74880;PMS5003;63427;49.654;6.596;2023-07-09T15:40:30;13;13;
74880;PMS5003;63427;49.654;6.596;2023-07-09T15:42:57;9;9;
74880;PMS5003;63427;49.654;6.596;2023-07-09T15:45:21;11;11;
74880;PMS5003;63427;49.654;6.596;2023-07-09T15:47:48;8;7;
74880;PMS5003;63427;49.654;6.596;2023-07-09T15:50:13;10;10;
74880;PMS5003;63427;49.654;6.596;2023-07-09T15:52:39;8;8;
74880;PMS5003;63427;49.654;6.596;2023-07-09T15:55:05;9;9;
74880;PMS5003;63427;49.654;6.596;2023-07-09T15:57:30;11;11;
74880;PMS5003;63427;49.654;6.596;2023-07-09T15:59:56;10;9;
74880;PMS5003;63427;49.654;6.596;2023-07-09T16:02:21;10;10;
74880;PMS5003;63427;49.654;6.596;2023-07-09T16:04:47;9;9;
74880;PMS5003;63427;49.654;6.596;2023-07-09T16:07:12;11;10;
74880;PMS5003;63427;49.654;6.596;2023-07-09T16:09:38;11;11;
74880;PMS5003;63427;49.654;6.596;2023-07-09T16:12:04;9;9;
74880;PMS5003;63427;49.654;6.596;2023-07-09T16:14:30;9;9;
74880;PMS5003;63427;49.654;6.596;2023-07-09T16:16:56;10;9;
74880;PMS5003;63427;49.654;6.596;2023-07-09T16:19:23;10;9;
74880;PMS5003;63427;49.654;6.596;2023-07-09T16:21:47;8;8;
74880;PMS5003;63427;49.654;6.596;2023-07-09T16:24:14;8;7;
74880;PMS5003;63427;49.654;6.596;2023-07-09T16:26:38;10;10;
74880;PMS5003;63427;49.654;6.596;2023-07-09T16:29:04;10;10;
74880;PMS5003;63427;49.654;6.596;2023-07-09T16:31:30;10;10;
74880;PMS5003;63427;49.654;6.596;2023-07-09T16:33:55;8;8;
74880;PMS5003;63427;49.654;6.596;2023-07-09T16:36:21;8;7;
74880;PMS5003;63427;49.654;6.596;2023-07-09T16:38:47;10;10;
74880;PMS5003;63427;49.654;6.596;2023-07-09T16:41:12;7;7;
74880;PMS5003;63427;49.654;6.596;2023-07-09T16:43:38;10;10;
74880;PMS5003;63427;49.654;6.596;2023-07-09T16:46:08;10;10;
74880;PMS5003;63427;49.654;6.596;2023-07-09T16:48:29;9;9;
74880;PMS5003;63427;49.654;6.596;2023-07-09T16:50:55;10;10;
74880;PMS5003;63427;49.654;6.596;2023-07-09T16:53:21;9;9;
74880;PMS5003;63427;49.654;6.596;2023-07-09T16:55:47;8;8;
74880;PMS5003;63427;49.654;6.596;2023-07-09T16:58:17;10;9;
74880;PMS5003;63427;49.654;6.596;2023-07-09T17:00:38;8;8;
74880;PMS5003;63427;49.654;6.596;2023-07-09T17:03:04;10;10;
74880;PMS5003;63427;49.654;6.596;2023-07-09T17:05:29;8;8;
74880;PMS5003;63427;49.654;6.596;2023-07-09T17:07:55;8;8;
74880;PMS5003;63427;49.654;6.596;2023-07-09T17:10:20;8;8;
74880;PMS5003;63427;49.654;6.596;2023-07-09T17:12:46;9;9;
74880;PMS5003;63427;49.654;6.596;2023-07-09T17:15:18;9;9;
74880;PMS5003;63427;49.654;6.596;2023-07-09T17:17:37;8;8;
74880;PMS5003;63427;49.654;6.596;2023-07-09T17:20:02;12;11;
74880;PMS5003;63427;49.654;6.596;2023-07-09T17:22:28;10;10;
74880;PMS5003;63427;49.654;6.596;2023-07-09T17:24:53;10;9;
74880;PMS5003;63427;49.654;6.596;2023-07-09T17:27:28;8;8;
74880;PMS5003;63427;49.654;6.596;2023-07-09T17:29:45;10;10;
74880;PMS5003;63427;49.654;6.596;2023-07-09T17:32:12;8;8;
74880;PMS5003;63427;49.654;6.596;2023-07-09T17:34:36;9;9;
74880;PMS5003;63427;49.654;6.596;2023-07-09T17:37:02;10;9;
74880;PMS5003;63427;49.654;6.596;2023-07-09T17:39:28;9;8;
74880;PMS5003;63427;49.654;6.596;2023-07-09T17:41:53;12;12;
74880;PMS5003;63427;49.654;6.596;2023-07-09T17:44:21;8;8;
74880;PMS5003;63427;49.654;6.596;2023-07-09T17:46:45;10;10;
74880;PMS5003;63427;49.654;6.596;2023-07-09T17:49:12;8;8;
74880;PMS5003;63427;49.654;6.596;2023-07-09T17:51:36;9;9;
74880;PMS5003;63427;49.654;6.596;2023-07-09T17:54:01;9;9;
74880;PMS5003;63427;49.654;6.596;2023-07-09T17:56:27;9;9;
74880;PMS5003;63427;49.654;6.596;2023-07-09T17:58:53;10;10;
74880;PMS5003;63427;49.654;6.596;2023-07-09T18:01:18;8;8;
74880;PMS5003;63427;49.654;6.596;2023-07-09T18:03:44;9;8;
74880;PMS5003;63427;49.654;6.596;2023-07-09T18:06:12;8;8;
74880;PMS5003;63427;49.654;6.596;2023-07-09T18:08:36;9;8;
74880;PMS5003;63427;49.654;6.596;2023-07-09T18:11:01;10;9;
74880;PMS5003;63427;49.654;6.596;2023-07-09T18:13:27;9;9;
74880;PMS5003;63427;49.654;6.596;2023-07-09T18:15:53;8;8;
74880;PMS5003;63427;49.654;6.596;2023-07-09T18:18:18;11;11;
74880;PMS5003;63427;49.654;6.596;2023-07-09T18:20:44;12;12;
74880;PMS5003;63427;49.654;6.596;2023-07-09T18:23:10;8;8;
74880;PMS5003;63427;49.654;6.596;2023-07-09T18:25:36;9;9;
74880;PMS5003;63427;49.654;6.596;2023-07-09T18:28:01;8;8;
74880;PMS5003;63427;49.654;6.596;2023-07-09T18:30:28;9;9;
74880;PMS5003;63427;49.654;6.596;2023-07-09T18:32:53;7;7;
74880;PMS5003;63427;49.654;6.596;2023-07-09T18:35:19;8;8;
74880;PMS5003;63427;49.654;6.596;2023-07-09T18:37:44;8;8;
74880;PMS5003;63427;49.654;6.596;2023-07-09T18:40:10;11;11;
74880;PMS5003;63427;49.654;6.596;2023-07-09T18:42:35;12;12;
74880;PMS5003;63427;49.654;6.596;2023-07-09T18:45:01;11;11;
74880;PMS5003;63427;49.654;6.596;2023-07-09T18:47:26;9;9;
74880;PMS5003;63427;49.654;6.596;2023-07-09T18:49:52;10;10;
74880;PMS5003;63427;49.654;6.596;2023-07-09T18:52:19;12;12;
74880;PMS5003;63427;49.654;6.596;2023-07-09T18:54:44;11;11;
74880;PMS5003;63427;49.654;6.596;2023-07-09T18:57:10;10;10;
74880;PMS5003;63427;49.654;6.596;2023-07-09T18:59:35;13;13;
74880;PMS5003;63427;49.654;6.596;2023-07-09T19:02:01;11;11;
74880;PMS5003;63427;49.654;6.596;2023-07-09T19:04:27;12;12;
74880;PMS5003;63427;49.654;6.596;2023-07-09T19:06:52;11;11;
74880;PMS5003;63427;49.654;6.596;2023-07-09T19:09:19;11;11;
74880;PMS5003;63427;49.654;6.596;2023-07-09T19:11:44;10;10;
74880;PMS5003;63427;49.654;6.596;2023-07-09T19:14:09;11;10;